createdAt,value
2023-05-21T00:00:02.760Z,102031.56
2023-05-21T00:02:05.315Z,102027.09
2023-05-21T00:04:08.206Z,102022.81
2023-05-21T00:06:10.391Z,102028.03
2023-05-21T00:08:12.687Z,102023.03
2023-05-21T00:10:14.776Z,102023.88
2023-05-21T00:12:16.971Z,102022.69
2023-05-21T00:14:19.225Z,102014.13
2023-05-21T00:16:21.409Z,102020.16
2023-05-21T00:18:25.620Z,102017.16
2023-05-21T00:20:29.508Z,102031.75
2023-05-21T00:22:33.794Z,102033.53
2023-05-21T00:24:36.161Z,102030.94
2023-05-21T00:26:38.481Z,102033.41
2023-05-21T00:28:40.500Z,102028.03
2023-05-21T00:30:43.341Z,102027.78
2023-05-21T00:32:45.640Z,102025.03
2023-05-21T00:34:48.645Z,102020.81
2023-05-21T00:36:50.820Z,102020.06
2023-05-21T00:38:52.974Z,102033.75
2023-05-21T00:40:55.068Z,102025.13
2023-05-21T00:42:57.484Z,102026.94
2023-05-21T00:45:00.243Z,102019.16
2023-05-21T00:47:02.914Z,102021.63
2023-05-21T00:49:05.799Z,102016.97
2023-05-21T00:51:08.040Z,102016.88
2023-05-21T00:53:11.855Z,102014.03
2023-05-21T00:55:14.089Z,102015.72
2023-05-21T00:57:20.959Z,102008.72
2023-05-21T00:59:24.365Z,102007.84
2023-05-21T01:01:26.817Z,102012.50
2023-05-21T01:03:31.493Z,102013.25
2023-05-21T01:05:33.959Z,102023.19
2023-05-21T01:07:39.370Z,102019.75
2023-05-21T01:09:43.045Z,102006.97
2023-05-21T01:11:48.270Z,102016.88
2023-05-21T01:13:51.210Z,102018.88
2023-05-21T01:15:54.391Z,102018.69
2023-05-21T01:17:57.502Z,102015.22
2023-05-21T01:20:02.019Z,102023.34
2023-05-21T01:22:08.184Z,102016.69
2023-05-21T01:24:10.511Z,102010.28
2023-05-21T01:26:17.302Z,102014.63
2023-05-21T01:28:19.417Z,102019.53
2023-05-21T01:30:23.387Z,102018.09
2023-05-21T01:32:44.878Z,102021.50
2023-05-21T01:34:56.212Z,102014.53
2023-05-21T01:37:17.625Z,102016.94
2023-05-21T01:39:26.109Z,102018.56
2023-05-21T01:41:33.588Z,102014.16
2023-05-21T01:43:40.120Z,102012.59
2023-05-21T01:45:45.190Z,102015.31
2023-05-21T01:47:50.000Z,102006.53
2023-05-21T01:49:52.798Z,102011.66
2023-05-21T01:51:55.357Z,102019.53
2023-05-21T01:53:57.643Z,102017.91
2023-05-21T01:56:03.104Z,102013.41
2023-05-21T01:58:05.436Z,102010.91
2023-05-21T02:00:09.169Z,102004.78
2023-05-21T02:02:11.600Z,102014.34
2023-05-21T02:04:13.827Z,102006.94
2023-05-21T02:06:16.211Z,102014.06
2023-05-21T02:08:20.001Z,102010.88
2023-05-21T02:10:22.273Z,102011.44
2023-05-21T02:12:24.377Z,102010.47
2023-05-21T02:14:26.609Z,102013.31
2023-05-21T02:16:28.786Z,102014.16
2023-05-21T02:18:30.994Z,102021.09
2023-05-21T02:20:33.164Z,102016.81
2023-05-21T02:22:35.352Z,102016.69
2023-05-21T02:24:37.578Z,102015.06
2023-05-21T02:26:39.704Z,102009.16
2023-05-21T02:28:41.792Z,102009.81
2023-05-21T02:30:43.920Z,102011.34
2023-05-21T02:32:49.141Z,102018.34
2023-05-21T02:34:51.356Z,102010.38
2023-05-21T02:36:53.447Z,102014.84
2023-05-21T02:38:58.101Z,102009.56
2023-05-21T02:41:00.362Z,102012.97
2023-05-21T02:43:02.473Z,102010.34
2023-05-21T02:45:05.204Z,102015.31
2023-05-21T02:47:08.648Z,102013.53
2023-05-21T02:49:10.908Z,102015.25
2023-05-21T02:51:13.063Z,102019.22
2023-05-21T02:53:15.207Z,102009.88
2023-05-21T02:55:17.327Z,102015.97
2023-05-21T02:57:19.816Z,102011.84
2023-05-21T02:59:21.873Z,102011.78
2023-05-21T03:01:23.775Z,102005.72
2023-05-21T03:03:25.859Z,102002.13
2023-05-21T03:05:28.029Z,101995.94
2023-05-21T03:07:29.851Z,101998.06
2023-05-21T03:09:31.843Z,101997.03
2023-05-21T03:11:33.775Z,101988.25
2023-05-21T03:13:35.822Z,101985.06
2023-05-21T03:15:39.517Z,101991.13
2023-05-21T03:17:42.846Z,101986.72
2023-05-21T03:19:45.015Z,101990.13
2023-05-21T03:21:47.046Z,101987.13
2023-05-21T03:23:49.716Z,101980.72
2023-05-21T03:25:51.551Z,101986.00
2023-05-21T03:27:53.431Z,101981.56
2023-05-21T03:29:56.103Z,101984.56
2023-05-21T03:31:58.153Z,101989.44
2023-05-21T03:34:00.201Z,101991.19
2023-05-21T03:36:02.324Z,101992.91
2023-05-21T03:38:04.784Z,101995.47
2023-05-21T03:40:07.817Z,101984.19
2023-05-21T03:42:09.736Z,101992.25
2023-05-21T03:44:11.697Z,101991.56
2023-05-21T03:46:13.609Z,101992.84
2023-05-21T03:48:20.047Z,101992.56
2023-05-21T03:50:21.886Z,102000.41
2023-05-21T03:52:23.769Z,101997.03
2023-05-21T03:54:25.900Z,102001.19
2023-05-21T03:56:27.786Z,102000.41
2023-05-21T03:58:30.734Z,101998.56
2023-05-21T04:00:34.636Z,101993.00
2023-05-21T04:02:36.603Z,102001.19
2023-05-21T04:04:38.519Z,102003.31
2023-05-21T04:06:42.488Z,102004.84
2023-05-21T04:08:44.673Z,101999.63
2023-05-21T04:10:46.619Z,101998.94
2023-05-21T04:12:52.527Z,102006.72
2023-05-21T04:14:54.479Z,102004.28
2023-05-21T04:16:56.877Z,102009.03
2023-05-21T04:18:58.712Z,102015.69
2023-05-21T04:21:01.941Z,102013.63
2023-05-21T04:23:03.889Z,102010.88
2023-05-21T04:25:06.347Z,102012.56
2023-05-21T04:27:10.229Z,102013.53
2023-05-21T04:29:12.135Z,102018.56
2023-05-21T04:31:14.130Z,102007.59
2023-05-21T04:33:18.587Z,102011.19
2023-05-21T04:35:20.716Z,102019.94
2023-05-21T04:37:24.751Z,102013.69
2023-05-21T04:39:26.778Z,102005.03
2023-05-21T04:41:28.661Z,102004.38
2023-05-21T04:43:32.125Z,102006.84
2023-05-21T04:45:34.230Z,102010.53
2023-05-21T04:47:36.350Z,102015.41
2023-05-21T04:49:38.312Z,102019.44
2023-05-21T04:51:40.187Z,102011.88
2023-05-21T04:53:42.732Z,102011.78
2023-05-21T04:55:44.611Z,102022.50
2023-05-21T04:57:46.578Z,102017.69
2023-05-21T04:59:49.364Z,102016.13
2023-05-21T05:01:51.416Z,102016.69
2023-05-21T05:03:53.662Z,102012.63
2023-05-21T05:05:55.786Z,102017.88
2023-05-21T05:07:58.547Z,102018.38
2023-05-21T05:10:00.507Z,102018.75
2023-05-21T05:12:02.421Z,102018.97
2023-05-21T05:14:04.326Z,102017.34
2023-05-21T05:16:07.530Z,102017.88
2023-05-21T05:18:09.739Z,102008.16
2023-05-21T05:20:12.038Z,102008.16
2023-05-21T05:22:13.940Z,102003.31
2023-05-21T05:24:16.398Z,102011.50
2023-05-21T05:26:18.325Z,102008.53
2023-05-21T05:28:20.198Z,102005.03
2023-05-21T05:30:22.051Z,102009.13
2023-05-21T05:32:23.973Z,102004.06
2023-05-21T05:34:26.048Z,102004.56
2023-05-21T05:36:27.998Z,102005.81
2023-05-21T05:38:29.887Z,101999.41
2023-05-21T05:40:31.811Z,101997.13
2023-05-21T05:42:33.849Z,101995.63
2023-05-21T05:44:35.758Z,101994.09
2023-05-21T05:46:37.904Z,102001.28
2023-05-21T05:48:40.122Z,101997.78
2023-05-21T05:50:41.983Z,101994.03
2023-05-21T05:52:43.881Z,101989.28
2023-05-21T05:54:46.062Z,101987.84
2023-05-21T05:56:48.044Z,101985.78
2023-05-21T05:58:49.916Z,101988.69
2023-05-21T06:00:52.462Z,101988.56
2023-05-21T06:02:54.398Z,101989.69
2023-05-21T06:04:56.376Z,101988.03
2023-05-21T06:06:58.756Z,101990.47
2023-05-21T06:09:01.363Z,101984.78
2023-05-21T06:11:07.032Z,101988.16
2023-05-21T06:13:08.881Z,101989.03
2023-05-21T06:15:11.133Z,101996.78
2023-05-21T06:17:13.120Z,101994.78
2023-05-21T06:19:15.106Z,101998.56
2023-05-21T06:21:17.183Z,101999.75
2023-05-21T06:23:19.033Z,101994.03
2023-05-21T06:25:21.102Z,101988.94
2023-05-21T06:27:22.988Z,101992.34
2023-05-21T06:29:24.994Z,101992.34
2023-05-21T06:31:26.934Z,101987.44
2023-05-21T06:33:29.002Z,101984.56
2023-05-21T06:35:30.944Z,101984.72
2023-05-21T06:37:32.883Z,101978.72
2023-05-21T06:39:34.809Z,101981.09
2023-05-21T06:41:36.816Z,101978.06
2023-05-21T06:43:38.682Z,101976.44
2023-05-21T06:45:40.890Z,101985.13
2023-05-21T06:47:43.233Z,101979.22
2023-05-21T06:49:45.187Z,101984.66
2023-05-21T06:51:47.433Z,101983.59
2023-05-21T06:53:49.450Z,101981.25
2023-05-21T06:55:54.052Z,101987.94
2023-05-21T06:57:58.619Z,101986.69
2023-05-21T07:00:00.824Z,101985.88
2023-05-21T07:02:04.496Z,101988.81
2023-05-21T07:04:06.763Z,101985.22
2023-05-21T07:06:08.917Z,101983.63
2023-05-21T07:08:12.330Z,101979.34
2023-05-21T07:10:14.343Z,101975.41
2023-05-21T07:12:16.224Z,101976.28
2023-05-21T07:14:18.171Z,101976.38
2023-05-21T07:16:20.176Z,101986.22
2023-05-21T07:18:28.203Z,101982.91
2023-05-21T07:20:30.170Z,101982.97
2023-05-21T07:22:32.130Z,101977.09
2023-05-21T07:24:34.085Z,101986.56
2023-05-21T07:26:36.056Z,101983.81
2023-05-21T07:28:38.118Z,101986.88
2023-05-21T07:30:40.089Z,101971.44
2023-05-21T07:32:42.367Z,101972.59
2023-05-21T07:34:44.322Z,101973.41
2023-05-21T07:36:46.274Z,101977.03
2023-05-21T07:38:48.267Z,101977.81
2023-05-21T07:40:50.322Z,101986.03
2023-05-21T07:42:52.476Z,101979.31
2023-05-21T07:44:54.473Z,101991.97
2023-05-21T07:46:56.728Z,101985.50
2023-05-21T07:48:58.686Z,101981.16
2023-05-21T07:51:01.250Z,101983.19
2023-05-21T07:53:03.538Z,101972.22
2023-05-21T07:55:06.573Z,101977.41
2023-05-21T07:57:08.510Z,101974.88
2023-05-21T07:59:11.677Z,101975.88
2023-05-21T08:01:15.402Z,101971.78
2023-05-21T08:03:19.830Z,101977.03
2023-05-21T08:05:23.646Z,101983.22
2023-05-21T08:07:25.593Z,101981.72
2023-05-21T08:09:27.499Z,101972.31
2023-05-21T08:11:29.603Z,101970.53
2023-05-21T08:13:31.631Z,101966.09
2023-05-21T08:15:33.935Z,101975.06
2023-05-21T08:17:35.953Z,101974.94
2023-05-21T08:19:38.467Z,101974.50
2023-05-21T08:21:40.603Z,101972.06
2023-05-21T08:23:42.725Z,101967.75
2023-05-21T08:25:44.665Z,101966.06
2023-05-21T08:27:46.720Z,101963.63
2023-05-21T08:29:48.713Z,101962.03
2023-05-21T08:31:50.700Z,101965.66
2023-05-21T08:33:54.009Z,101970.91
2023-05-21T08:35:55.982Z,101968.47
2023-05-21T08:38:03.287Z,101965.94
2023-05-21T08:40:06.771Z,101969.38
2023-05-21T08:42:25.663Z,101969.34
2023-05-21T08:44:42.384Z,101961.94
2023-05-21T08:46:46.225Z,101956.03
2023-05-21T08:48:48.588Z,101969.81
2023-05-21T08:50:54.977Z,101966.50
2023-05-21T08:52:59.174Z,101962.34
2023-05-21T08:55:03.980Z,101959.84
2023-05-21T08:57:06.818Z,101954.53
2023-05-21T08:59:08.978Z,101958.25
2023-05-21T09:01:12.948Z,101961.00
2023-05-21T09:03:16.415Z,101962.72
2023-05-21T09:05:18.582Z,101967.22
2023-05-21T09:07:20.788Z,101962.28
2023-05-21T09:09:32.924Z,101970.22
2023-05-21T09:11:34.837Z,101960.72
2023-05-21T09:13:39.142Z,101954.72
2023-05-21T09:15:42.101Z,101959.22
2023-05-21T09:17:47.906Z,101960.25
2023-05-21T09:20:08.206Z,101955.28
2023-05-21T09:22:10.203Z,101948.50
2023-05-21T09:24:14.272Z,101955.44
2023-05-21T09:26:16.399Z,101950.31
2023-05-21T09:28:23.308Z,101954.88
2023-05-21T09:30:27.809Z,101959.31
2023-05-21T09:32:32.317Z,101954.19
2023-05-21T09:34:37.025Z,101965.34
2023-05-21T09:36:45.884Z,101954.16
2023-05-21T09:38:53.801Z,101950.66
2023-05-21T09:40:57.172Z,101958.47
2023-05-21T09:42:59.481Z,101952.69
2023-05-21T09:45:02.583Z,101955.41
2023-05-21T09:47:04.686Z,101951.91
2023-05-21T09:49:06.985Z,101943.38
2023-05-21T09:51:11.603Z,101940.69
2023-05-21T09:53:14.713Z,101947.78
2023-05-21T09:55:17.713Z,101950.56
2023-05-21T09:57:29.909Z,101940.25
2023-05-21T09:59:39.752Z,101949.06
2023-05-21T10:01:41.826Z,101935.25
2023-05-21T10:03:50.554Z,101944.97
2023-05-21T10:05:55.180Z,101939.75
2023-05-21T10:08:03.394Z,101940.66
2023-05-21T10:10:10.868Z,101941.59
2023-05-21T10:12:19.512Z,101932.13
2023-05-21T10:14:26.346Z,101933.91
2023-05-21T10:16:30.802Z,101931.38
2023-05-21T10:18:33.733Z,101932.34
2023-05-21T10:20:38.352Z,101924.56
2023-05-21T10:22:42.095Z,101932.41
2023-05-21T10:24:45.496Z,101929.00
2023-05-21T10:26:48.686Z,101921.97
2023-05-21T10:28:52.381Z,101929.91
2023-05-21T10:30:54.740Z,101923.00
2023-05-21T10:32:58.217Z,101917.78
2023-05-21T10:35:02.694Z,101925.56
2023-05-21T10:37:08.247Z,101919.50
2023-05-21T10:39:13.113Z,101911.69
2023-05-21T10:41:17.449Z,101921.31
2023-05-21T10:43:39.053Z,101917.84
2023-05-21T10:45:50.819Z,101915.22
2023-05-21T10:48:13.850Z,101917.81
2023-05-21T10:50:19.401Z,101924.66
2023-05-21T10:52:37.019Z,101918.63
2023-05-21T10:54:50.135Z,101913.38
2023-05-21T10:57:08.210Z,101912.50
2023-05-21T10:59:18.766Z,101902.94
2023-05-21T11:01:21.457Z,101904.69
2023-05-21T11:03:24.067Z,101896.84
2023-05-21T11:05:45.666Z,101902.09
2023-05-21T11:07:53.175Z,101898.47
2023-05-21T11:10:24.754Z,101890.72
2023-05-21T11:12:27.590Z,101895.84
2023-05-21T11:14:38.404Z,101894.97
2023-05-21T11:16:47.113Z,101900.94
2023-05-21T11:18:49.558Z,101894.91
2023-05-21T11:20:52.264Z,101887.94
2023-05-21T11:22:54.468Z,101886.25
2023-05-21T11:25:01.221Z,101889.78
2023-05-21T11:27:05.074Z,101877.59
2023-05-21T11:29:10.831Z,101882.91
2023-05-21T11:31:23.281Z,101884.66
2023-05-21T11:33:25.386Z,101887.31
2023-05-21T11:35:28.508Z,101882.97
2023-05-21T11:37:33.406Z,101877.75
2023-05-21T11:39:40.478Z,101878.63
2023-05-21T11:41:54.305Z,101876.91
2023-05-21T11:44:03.465Z,101876.84
2023-05-21T11:46:06.061Z,101875.19
2023-05-21T11:48:14.387Z,101870.81
2023-05-21T11:50:17.815Z,101867.34
2023-05-21T11:52:20.855Z,101864.72
2023-05-21T11:54:23.947Z,101860.38
2023-05-21T11:56:26.476Z,101862.13
2023-05-21T11:58:31.878Z,101863.84
2023-05-21T12:00:40.269Z,101854.28
2023-05-21T12:02:52.960Z,101865.63
2023-05-21T12:05:00.508Z,101849.06
2023-05-21T12:07:08.129Z,101846.47
2023-05-21T12:09:11.234Z,101850.81
2023-05-21T12:11:13.480Z,101847.31
2023-05-21T12:13:15.653Z,101846.47
2023-05-21T12:15:18.700Z,101849.09
2023-05-21T12:17:22.287Z,101848.22
2023-05-21T12:19:24.397Z,101845.59
2023-05-21T12:21:29.520Z,101843.88
2023-05-21T12:23:31.987Z,101837.72
2023-05-21T12:25:34.430Z,101836.88
2023-05-21T12:27:37.266Z,101839.47
2023-05-21T12:29:42.763Z,101838.56
2023-05-21T12:31:49.686Z,101840.28
2023-05-21T12:33:52.547Z,101833.25
2023-05-21T12:35:54.561Z,101835.84
2023-05-21T12:37:56.984Z,101835.84
2023-05-21T12:40:01.483Z,101835.00
2023-05-21T12:42:03.737Z,101832.44
2023-05-21T12:44:09.067Z,101833.28
2023-05-21T12:46:17.515Z,101845.47
2023-05-21T12:48:19.575Z,101841.16
2023-05-21T12:50:22.452Z,101840.31
2023-05-21T12:52:25.035Z,101842.91
2023-05-21T12:54:38.055Z,101834.22
2023-05-21T12:56:47.202Z,101836.84
2023-05-21T12:58:50.786Z,101844.69
2023-05-21T13:00:56.694Z,101830.78
2023-05-21T13:03:00.379Z,101833.38
2023-05-21T13:05:05.958Z,101835.97
2023-05-21T13:07:07.959Z,101835.16
2023-05-21T13:09:10.045Z,101846.47
2023-05-21T13:11:12.041Z,101841.25
2023-05-21T13:13:13.985Z,101838.63
2023-05-21T13:15:16.013Z,101842.09
2023-05-21T13:17:19.033Z,101841.25
2023-05-21T13:19:21.270Z,101847.34
2023-05-21T13:21:23.796Z,101836.88
2023-05-21T13:23:25.965Z,101842.09
2023-05-21T13:25:29.219Z,101844.72
2023-05-21T13:27:31.402Z,101843.84
2023-05-21T13:29:33.702Z,101849.03
2023-05-21T13:31:35.956Z,101838.59
2023-05-21T13:33:38.072Z,101843.00
2023-05-21T13:35:40.346Z,101833.41
2023-05-21T13:37:42.810Z,101834.28
2023-05-21T13:39:44.885Z,101832.50
2023-05-21T13:41:47.715Z,101839.47
2023-05-21T13:43:49.686Z,101833.44
2023-05-21T13:45:52.897Z,101835.16
2023-05-21T13:47:55.141Z,101828.16
2023-05-21T13:49:57.186Z,101835.16
2023-05-21T13:52:01.138Z,101838.63
2023-05-21T13:54:03.361Z,101834.28
2023-05-21T13:56:06.078Z,101838.66
2023-05-21T13:58:08.721Z,101829.06
2023-05-21T14:00:14.651Z,101824.69
2023-05-21T14:02:17.191Z,101824.69
2023-05-21T14:04:20.843Z,101822.97
2023-05-21T14:06:22.844Z,101830.78
2023-05-21T14:08:27.704Z,101833.41
2023-05-21T14:10:29.886Z,101830.78
2023-05-21T14:12:31.951Z,101828.19
2023-05-21T14:14:34.170Z,101825.56
2023-05-21T14:16:36.601Z,101828.19
2023-05-21T14:18:38.693Z,101829.91
2023-05-21T14:20:40.780Z,101834.28
2023-05-21T14:22:43.166Z,101829.91
2023-05-21T14:24:45.276Z,101824.69
2023-05-21T14:26:47.221Z,101827.28
2023-05-21T14:28:49.541Z,101836.88
2023-05-21T14:30:51.621Z,101829.06
2023-05-21T14:32:54.610Z,101832.50
2023-05-21T14:34:59.557Z,101818.53
2023-05-21T14:37:01.629Z,101816.81
2023-05-21T14:39:04.368Z,101813.28
2023-05-21T14:41:07.509Z,101815.94
2023-05-21T14:43:10.001Z,101814.19
2023-05-21T14:45:19.128Z,101810.72
2023-05-21T14:47:22.049Z,101808.09
2023-05-21T14:49:24.298Z,101816.81
2023-05-21T14:51:26.864Z,101811.56
2023-05-21T14:53:28.858Z,101805.50
2023-05-21T14:55:31.169Z,101812.44
2023-05-21T14:57:33.222Z,101821.13
2023-05-21T14:59:35.420Z,101808.09
2023-05-21T15:01:37.610Z,101808.06
2023-05-21T15:03:39.810Z,101803.75
2023-05-21T15:05:42.059Z,101808.94
2023-05-21T15:07:44.620Z,101797.66
2023-05-21T15:09:46.574Z,101800.28
2023-05-21T15:11:52.608Z,101805.50
2023-05-21T15:13:55.107Z,101806.38
2023-05-21T15:15:57.334Z,101794.19
2023-05-21T15:18:00.757Z,101800.28
2023-05-21T15:20:04.788Z,101790.69
2023-05-21T15:22:06.827Z,101786.38
2023-05-21T15:24:09.170Z,101793.34
2023-05-21T15:26:11.177Z,101785.50
2023-05-21T15:28:13.432Z,101788.97
2023-05-21T15:30:15.615Z,101794.19
2023-05-21T15:32:18.758Z,101795.94
2023-05-21T15:34:20.909Z,101795.06
2023-05-21T15:36:23.312Z,101789.81
2023-05-21T15:38:25.821Z,101782.00
2023-05-21T15:40:27.811Z,101785.50
2023-05-21T15:42:31.952Z,101782.03
2023-05-21T15:44:34.268Z,101780.22
2023-05-21T15:46:36.573Z,101781.13
2023-05-21T15:48:38.924Z,101783.72
2023-05-21T15:50:41.223Z,101776.72
2023-05-21T15:52:43.439Z,101782.84
2023-05-21T15:54:46.657Z,101780.22
2023-05-21T15:56:50.698Z,101777.59
2023-05-21T15:58:53.070Z,101780.25
2023-05-21T16:00:55.294Z,101774.94
2023-05-21T16:02:57.379Z,101782.81
2023-05-21T16:04:59.637Z,101783.66
2023-05-21T16:07:02.009Z,101787.16
2023-05-21T16:09:04.211Z,101781.94
2023-05-21T16:11:06.517Z,101789.78
2023-05-21T16:13:08.701Z,101782.81
2023-05-21T16:15:11.529Z,101777.66
2023-05-21T16:17:13.848Z,101780.25
2023-05-21T16:19:16.419Z,101786.34
2023-05-21T16:21:18.723Z,101787.22
2023-05-21T16:23:20.948Z,101784.59
2023-05-21T16:25:23.264Z,101783.75
2023-05-21T16:27:26.054Z,101780.25
2023-05-21T16:29:28.334Z,101776.78
2023-05-21T16:31:30.891Z,101783.75
2023-05-21T16:33:33.234Z,101777.66
2023-05-21T16:35:35.697Z,101786.38
2023-05-21T16:37:38.069Z,101780.28
2023-05-21T16:39:40.296Z,101778.53
2023-05-21T16:41:43.945Z,101781.13
2023-05-21T16:43:46.393Z,101781.16
2023-05-21T16:45:49.547Z,101780.28
2023-05-21T16:47:52.359Z,101778.53
2023-05-21T16:49:56.325Z,101775.94
2023-05-21T16:51:58.419Z,101774.19
2023-05-21T16:54:00.701Z,101772.47
2023-05-21T16:56:03.181Z,101771.59
2023-05-21T16:58:07.102Z,101771.56
2023-05-21T17:00:10.026Z,101774.19
2023-05-21T17:02:13.827Z,101780.25
2023-05-21T17:04:16.097Z,101776.78
2023-05-21T17:06:18.236Z,101772.41
2023-05-21T17:08:20.427Z,101770.69
2023-05-21T17:10:24.581Z,101779.38
2023-05-21T17:12:26.994Z,101774.19
2023-05-21T17:16:34.731Z,101779.38
2023-05-21T17:18:37.026Z,101778.53
2023-05-21T17:20:39.519Z,101776.78
2023-05-21T17:22:41.779Z,101772.44
2023-05-21T17:24:43.837Z,101776.78
2023-05-21T17:26:46.089Z,101778.53
2023-05-21T17:28:48.215Z,101782.00
2023-05-21T17:30:51.168Z,101777.63
2023-05-21T17:32:53.296Z,101783.75
2023-05-21T17:34:55.662Z,101782.88
2023-05-21T17:36:59.186Z,101775.91
2023-05-21T17:39:01.705Z,101781.13
2023-05-21T17:41:04.147Z,101783.72
2023-05-21T17:43:07.560Z,101781.13
2023-05-21T17:45:10.163Z,101788.06
2023-05-21T17:47:12.562Z,101788.88
2023-05-21T17:49:14.914Z,101787.13
2023-05-21T17:51:17.163Z,101788.88
2023-05-21T17:53:19.487Z,101782.75
2023-05-21T17:55:21.913Z,101802.78
2023-05-21T17:57:24.102Z,101792.38
2023-05-21T17:59:26.471Z,101787.13
2023-05-21T18:01:28.964Z,101793.22
2023-05-21T18:03:31.718Z,101793.25
2023-05-21T18:05:35.184Z,101791.44
2023-05-21T18:07:38.551Z,101796.66
2023-05-21T18:09:40.783Z,101794.03
2023-05-21T18:11:44.761Z,101794.84
2023-05-21T18:13:46.893Z,101795.72
2023-05-21T18:15:49.063Z,101797.50
2023-05-21T18:17:51.303Z,101792.22
2023-05-21T18:19:53.376Z,101795.66
2023-05-21T18:21:55.520Z,101800.91
2023-05-21T18:23:57.661Z,101793.94
2023-05-21T18:26:00.262Z,101800.00
2023-05-21T18:28:02.384Z,101806.09
2023-05-21T18:30:06.604Z,101796.53
2023-05-21T18:32:09.004Z,101799.97
2023-05-21T18:34:11.508Z,101794.69
2023-05-21T18:36:13.571Z,101799.03
2023-05-21T18:38:15.681Z,101803.34
2023-05-21T18:40:18.490Z,101798.94
2023-05-21T18:42:21.015Z,101803.38
2023-05-21T18:44:23.196Z,101809.34
2023-05-21T18:46:25.648Z,101806.69
2023-05-21T18:48:27.844Z,101811.84
2023-05-21T18:50:30.152Z,101802.28
2023-05-21T18:52:32.712Z,101807.50
2023-05-21T18:54:34.822Z,101804.94
2023-05-21T18:56:37.212Z,101806.63
2023-05-21T18:58:39.421Z,101810.09
2023-05-21T19:00:43.580Z,101813.59
2023-05-21T19:02:46.961Z,101814.44
2023-05-21T19:04:49.526Z,101806.63
2023-05-21T19:06:51.696Z,101810.91
2023-05-21T19:08:54.184Z,101810.91
2023-05-21T19:10:56.413Z,101817.03
2023-05-21T19:12:58.952Z,101811.84
2023-05-21T19:15:01.052Z,101810.00
2023-05-21T19:17:03.153Z,101813.44
2023-05-21T19:19:06.285Z,101811.69
2023-05-21T19:21:08.588Z,101810.81
2023-05-21T19:23:11.021Z,101809.97
2023-05-21T19:25:13.163Z,101813.38
2023-05-21T19:27:15.487Z,101814.19
2023-05-21T19:29:17.718Z,101813.34
2023-05-21T19:31:20.702Z,101819.28
2023-05-21T19:33:22.960Z,101814.19
2023-05-21T19:35:25.122Z,101815.91
2023-05-21T19:37:27.262Z,101825.47
2023-05-21T19:39:40.738Z,101823.69
2023-05-21T19:41:43.028Z,101830.44
2023-05-21T19:43:46.094Z,101823.53
2023-05-21T19:45:48.349Z,101820.06
2023-05-21T19:47:50.424Z,101820.84
2023-05-21T19:49:52.398Z,101824.22
2023-05-21T19:51:55.184Z,101825.94
2023-05-21T19:53:57.615Z,101827.66
2023-05-21T19:56:00.030Z,101831.91
2023-05-21T19:58:02.148Z,101831.00
2023-05-21T20:00:05.566Z,101830.19
2023-05-21T20:02:10.958Z,101837.16
2023-05-21T20:04:13.802Z,101839.66
2023-05-21T20:06:19.163Z,101837.69
2023-05-21T20:08:21.382Z,101845.66
2023-05-21T20:10:23.539Z,101852.59
2023-05-21T20:12:25.595Z,101851.69
2023-05-21T20:14:28.044Z,101858.41
2023-05-21T20:16:30.654Z,101865.44
2023-05-21T20:18:32.633Z,101861.91
2023-05-21T20:20:37.680Z,101861.78
2023-05-21T20:22:40.154Z,101866.81
2023-05-21T20:24:42.640Z,101862.59
2023-05-21T20:26:45.273Z,101862.47
2023-05-21T20:28:47.797Z,101860.72
2023-05-21T20:30:54.723Z,101864.16
2023-05-21T20:32:57.643Z,101868.44
2023-05-21T20:35:03.262Z,101863.06
2023-05-21T20:37:06.330Z,101860.34
2023-05-21T20:39:09.391Z,101863.06
2023-05-21T20:41:12.362Z,101862.22
2023-05-21T20:43:15.146Z,101864.66
2023-05-21T20:45:17.348Z,101863.03
2023-05-21T20:47:20.702Z,101862.94
2023-05-21T20:49:25.088Z,101864.59
2023-05-21T20:51:27.862Z,101862.94
2023-05-21T20:53:29.933Z,101873.19
2023-05-21T20:55:35.147Z,101871.41
2023-05-21T20:57:37.298Z,101870.44
2023-05-21T20:59:39.291Z,101872.22
2023-05-21T21:01:41.788Z,101869.44
2023-05-21T21:03:46.097Z,101870.38
2023-05-21T21:05:48.256Z,101871.28
2023-05-21T21:07:51.821Z,101866.13
2023-05-21T21:09:55.576Z,101866.97
2023-05-21T21:12:06.297Z,101861.78
2023-05-21T21:14:11.262Z,101866.81
2023-05-21T21:16:13.370Z,101864.22
2023-05-21T21:18:16.498Z,101870.31
2023-05-21T21:20:19.585Z,101872.09
2023-05-21T21:22:21.783Z,101865.13
2023-05-21T21:24:23.785Z,101872.97
2023-05-21T21:26:27.243Z,101869.47
2023-05-21T21:28:29.403Z,101868.69
2023-05-21T21:30:31.701Z,101861.38
2023-05-21T21:32:36.068Z,101863.38
2023-05-21T21:34:38.271Z,101859.97
2023-05-21T21:36:40.685Z,101860.78
2023-05-21T21:38:42.538Z,101864.09
2023-05-21T21:40:44.722Z,101862.31
2023-05-21T21:42:46.807Z,101866.56
2023-05-21T21:44:48.906Z,101858.00
2023-05-21T21:46:50.817Z,101859.84
2023-05-21T21:48:53.012Z,101859.06
2023-05-21T21:50:55.240Z,101862.56
2023-05-21T21:52:57.493Z,101861.28
2023-05-21T21:54:59.886Z,101864.09
2023-05-21T21:57:02.391Z,101856.81
2023-05-21T21:59:04.367Z,101849.34
2023-05-21T22:01:06.563Z,101851.75
2023-05-21T22:03:08.619Z,101856.16
2023-05-21T22:05:10.656Z,101854.28
2023-05-21T22:07:18.269Z,101851.63
2023-05-21T22:09:22.762Z,101849.91
2023-05-21T22:11:24.868Z,101861.81
2023-05-21T22:13:29.163Z,101854.00
2023-05-21T22:15:32.487Z,101848.63
2023-05-21T22:17:35.168Z,101848.00
2023-05-21T22:19:37.187Z,101841.09
2023-05-21T22:21:39.768Z,101840.91
2023-05-21T22:23:41.775Z,101832.28
2023-05-21T22:25:43.675Z,101841.75
2023-05-21T22:27:45.813Z,101837.63
2023-05-21T22:29:47.830Z,101844.53
2023-05-21T22:31:49.883Z,101840.75
2023-05-21T22:33:51.849Z,101830.38
2023-05-21T22:35:54.722Z,101832.03
2023-05-21T22:37:56.740Z,101839.19
2023-05-21T22:39:58.643Z,101833.84
2023-05-21T22:42:00.905Z,101828.59
2023-05-21T22:44:02.895Z,101829.50
2023-05-21T22:46:04.850Z,101832.03
2023-05-21T22:48:07.418Z,101828.53
2023-05-21T22:50:10.819Z,101822.50
2023-05-21T22:52:14.712Z,101826.72
2023-05-21T22:54:17.414Z,101823.34
2023-05-21T22:56:19.852Z,101823.28
2023-05-21T22:58:21.764Z,101825.63
2023-05-21T23:00:24.105Z,101823.84
2023-05-21T23:02:26.222Z,101818.47
2023-05-21T23:04:43.501Z,101824.72
2023-05-21T23:06:46.101Z,101824.97
2023-05-21T23:08:47.989Z,101819.34
2023-05-21T23:10:49.962Z,101831.59
2023-05-21T23:12:52.455Z,101822.16
2023-05-21T23:14:54.669Z,101825.63
2023-05-21T23:17:02.156Z,101821.56
2023-05-21T23:19:04.470Z,101826.47
2023-05-21T23:21:06.786Z,101819.75
2023-05-21T23:23:09.547Z,101824.78
2023-05-21T23:25:11.413Z,101819.22
2023-05-21T23:27:13.449Z,101817.78
2023-05-21T23:29:15.325Z,101821.16